Time;durP1;ratioP1;P1;durP2;ratioP2;P2;SDS_P1;SDS_P2;PMS_P1;PMS_P2;Temp;Humidity;BMP_temperature;BMP_pressure;BME280_temperature;BME280_humidity;BME280_pressure;Samples;Min_cycle;Max_cycle;Signal;HPM_P1;HPM_P2
2023/05/03 00:01:14;;;;;;;;;;;;;;;12.68;100.00;98657.69;5078992;28;19995;-71
2023/05/03 00:03:40;;;;;;;;;;;;;;;12.93;100.00;98661.34;5080167;28;19924;-71
2023/05/03 00:06:11;;;;;;;;;;;;;;;12.81;100.00;98657.25;5079727;28;19925;-71
2023/05/03 00:08:38;;;;;;;;;;;;;;;12.86;100.00;98655.38;5078319;28;19924;-71
2023/05/03 00:11:04;;;;;;;;;;;;;;;12.76;100.00;98647.28;5080067;28;19936;-71
2023/05/03 00:13:32;;;;;;;;;;;;;;;12.91;100.00;98649.22;5078596;28;19948;-71
2023/05/03 00:15:58;;;;;;;;;;;;;;;12.55;100.00;98658.94;5082328;28;19960;-71
2023/05/03 00:18:24;;;;;;;;;;;;;;;12.83;100.00;98653.22;5083304;28;20330;-71
2023/05/03 00:20:52;;;;;;;;;;;;;;;12.83;100.00;98650.53;5082068;28;19996;-71
2023/05/03 00:23:18;;;;;;;;;;;;;;;13.17;100.00;98655.56;5079885;28;19920;-71
2023/05/03 00:25:44;;;;;;;;;;;;;;;12.67;100.00;98648.81;5079160;28;19929;-71
2023/05/03 00:28:11;;;;;;;;;;;;;;;12.58;100.00;98658.41;5083315;28;19924;-71
2023/05/03 00:30:38;;;;;;;;;;;;;;;12.34;100.00;98659.84;5083311;28;19925;-71
2023/05/03 00:33:05;;;;;;;;;;;;;;;12.44;100.00;98654.53;5078522;28;19988;-71
2023/05/03 00:35:31;;;;;;;;;;;;;;;13.05;100.00;98647.72;5079597;28;19928;-71
2023/05/03 00:37:58;;;;;;;;;;;;;;;13.31;100.00;98651.31;5073716;28;19931;-71
2023/05/03 00:40:24;;;;;;;;;;;;;;;13.15;100.00;98650.44;5083208;28;19980;-71
2023/05/03 00:42:51;;;;;;;;;;;;;;;13.07;100.00;98645.56;5081744;28;19986;-71
2023/05/03 00:45:17;;;;;;;;;;;;;;;13.14;100.00;98640.00;5079628;28;19960;-71
2023/05/03 00:47:45;;;;;;;;;;;;;;;12.78;100.00;98642.44;5079905;28;19932;-71
2023/05/03 00:50:11;;;;;;;;;;;;;;;13.07;100.00;98642.06;5082770;28;19925;-71
2023/05/03 00:52:37;;;;;;;;;;;;;;;13.53;100.00;98641.22;5083054;28;19935;-71
2023/05/03 00:55:04;;;;;;;;;;;;;;;13.60;100.00;98644.47;5079476;28;19935;-71
2023/05/03 00:57:31;;;;;;;;;;;;;;;13.86;100.00;98643.47;5079016;28;19924;-70
2023/05/03 00:59:57;;;;;;;;;;;;;;;14.04;100.00;98642.13;5081209;28;19928;-71
2023/05/03 01:02:24;;;;;;;;;;;;;;;14.19;100.00;98641.34;5082696;28;20569;-71
2023/05/03 01:04:52;;;;;;;;;;;;;;;14.26;100.00;98641.88;5081213;28;19991;-71
2023/05/03 01:07:23;;;;;;;;;;;;;;;14.28;100.00;98631.66;5070961;28;19920;-72
2023/05/03 01:09:56;;;;;;;;;;;;;;;14.21;100.00;98634.63;5080502;28;19931;-72
2023/05/03 01:12:28;;;;;;;;;;;;;;;14.06;100.00;98632.72;5082656;28;19963;-72
2023/05/03 01:15:02;;;;;;;;;;;;;;;14.16;100.00;98629.25;5080537;28;20042;-71
2023/05/03 01:17:29;;;;;;;;;;;;;;;14.20;100.00;98635.72;5078969;28;19925;-72
2023/05/03 01:20:00;;;;;;;;;;;;;;;14.03;100.00;98638.63;5079713;28;19924;-72
2023/05/03 01:22:31;;;;;;;;;;;;;;;13.94;100.00;98636.75;5082566;28;19924;-70
2023/05/03 01:25:01;;;;;;;;;;;;;;;13.91;100.00;98634.59;5080082;28;20012;-70
2023/05/03 01:27:27;;;;;;;;;;;;;;;13.77;100.00;98645.03;5079033;28;19925;-70
2023/05/03 01:29:54;;;;;;;;;;;;;;;13.60;100.00;98644.47;5080769;28;19925;-70
2023/05/03 01:32:26;;;;;;;;;;;;;;;13.68;100.00;98641.25;5082094;28;19950;-70
2023/05/03 01:34:58;;;;;;;;;;;;;;;13.50;100.00;98639.06;5080439;28;19924;-70
2023/05/03 01:37:25;;;;;;;;;;;;;;;13.63;100.00;98645.81;5070336;28;20028;-71
2023/05/03 01:39:54;;;;;;;;;;;;;;;13.66;100.00;98640.72;5079604;28;19925;-70
2023/05/03 01:42:24;;;;;;;;;;;;;;;13.69;100.00;98637.50;5081670;28;20299;-72
2023/05/03 01:44:50;;;;;;;;;;;;;;;13.83;100.00;98638.59;5080316;28;19925;-70
2023/05/03 01:47:17;;;;;;;;;;;;;;;13.87;100.00;98639.69;5078034;28;19996;-70
2023/05/03 01:49:43;;;;;;;;;;;;;;;13.79;100.00;98637.53;5077255;28;19989;-70
2023/05/03 01:52:09;;;;;;;;;;;;;;;13.26;100.00;98638.72;5081513;28;20389;-70
2023/05/03 01:54:36;;;;;;;;;;;;;;;12.84;100.00;98636.06;5081622;28;19940;-70
2023/05/03 01:57:02;;;;;;;;;;;;;;;12.90;100.00;98628.88;5078470;28;19951;-70
2023/05/03 01:59:30;;;;;;;;;;;;;;;12.96;100.00;98634.00;5077811;28;19986;-70
2023/05/03 02:01:56;;;;;;;;;;;;;;;13.31;100.00;98638.72;5079933;28;19931;-71
2023/05/03 02:04:22;;;;;;;;;;;;;;;13.44;100.00;98634.75;5081518;28;19924;-70
2023/05/03 02:06:49;;;;;;;;;;;;;;;13.57;100.00;98639.63;5071910;28;20581;-70
2023/05/03 02:09:15;;;;;;;;;;;;;;;13.75;100.00;98641.81;5077588;28;19991;-70
2023/05/03 02:11:42;;;;;;;;;;;;;;;13.78;100.00;98643.97;5077554;28;19925;-70
2023/05/03 02:14:09;;;;;;;;;;;;;;;13.74;100.00;98637.50;5081335;28;19920;-70
2023/05/03 02:16:36;;;;;;;;;;;;;;;13.87;100.00;98634.31;5081506;28;19963;-70
2023/05/03 02:19:03;;;;;;;;;;;;;;;13.89;100.00;98637.56;5078636;28;19988;-70
2023/05/03 02:21:30;;;;;;;;;;;;;;;13.91;100.00;98635.41;5078127;28;19929;-70
2023/05/03 02:23:56;;;;;;;;;;;;;;;13.97;100.00;98633.53;5080331;28;19931;-71
2023/05/03 02:26:23;;;;;;;;;;;;;;;13.93;100.00;98638.63;5082052;28;19987;-71
2023/05/03 02:28:49;;;;;;;;;;;;;;;13.98;100.00;98652.06;5080681;28;19951;-70
2023/05/03 02:43:28;;;;;;;;;;;;;;;13.78;100.00;98643.97;5069793;28;20019;-71
2023/05/03 02:45:55;;;;;;;;;;;;;;;13.88;100.00;98652.06;5079964;28;19924;-71
2023/05/03 02:48:21;;;;;;;;;;;;;;;13.95;100.00;98647.25;5081287;28;19924;-71
2023/05/03 02:50:47;;;;;;;;;;;;;;;13.99;100.00;98650.16;5078938;28;19987;-71
2023/05/03 02:53:14;;;;;;;;;;;;;;;14.03;100.00;98635.97;5077497;28;19925;-71
2023/05/03 02:55:40;;;;;;;;;;;;;;;14.05;100.00;98643.72;5077573;28;19947;-71
2023/05/03 02:58:07;;;;;;;;;;;;;;;14.06;100.00;98643.47;5077656;28;19978;-71
2023/05/03 03:00:34;;;;;;;;;;;;;;;14.05;100.00;98641.84;5076328;28;19933;-70
2023/05/03 03:03:01;;;;;;;;;;;;;;;13.98;100.00;98641.34;5079050;28;19940;-70
2023/05/03 03:05:27;;;;;;;;;;;;;;;13.96;100.00;98643.47;5074826;28;19920;-70
2023/05/03 03:07:54;;;;;;;;;;;;;;;13.91;100.00;98634.59;5070781;28;19932;-70
2023/05/03 03:10:20;;;;;;;;;;;;;;;13.85;100.00;98641.84;5080766;28;19920;-70
2023/05/03 03:12:46;;;;;;;;;;;;;;;13.91;100.00;98650.72;5079899;28;19929;-70
2023/05/03 03:15:13;;;;;;;;;;;;;;;13.78;100.00;98652.03;5076058;28;19932;-70
2023/05/03 03:17:41;;;;;;;;;;;;;;;13.63;100.00;98649.31;5077356;28;19924;-70
2023/05/03 03:20:10;;;;;;;;;;;;;;;13.44;100.00;98648.97;5076986;28;19952;-70
2023/05/03 03:22:36;;;;;;;;;;;;;;;12.95;100.00;98647.66;5078980;28;19929;-70
2023/05/03 03:25:03;;;;;;;;;;;;;;;12.96;100.00;98642.03;5084007;28;19987;-70
2023/05/03 03:27:29;;;;;;;;;;;;;;;12.75;100.00;98648.34;5084492;28;19935;-70
2023/05/03 03:29:56;;;;;;;;;;;;;;;12.88;100.00;98645.19;5082420;28;19928;-70
2023/05/03 03:32:22;;;;;;;;;;;;;;;12.78;100.00;98653.19;5080775;28;19963;-70
2023/05/03 03:34:50;;;;;;;;;;;;;;;12.66;100.00;98652.56;5081251;28;19996;-70
2023/05/03 03:37:16;;;;;;;;;;;;;;;13.05;100.00;98653.06;5072433;28;19951;-70
2023/05/03 03:39:43;;;;;;;;;;;;;;;13.14;100.00;98659.59;5081037;28;19924;-70
2023/05/03 03:42:10;;;;;;;;;;;;;;;12.84;100.00;98657.50;5084209;28;20019;-72
2023/05/03 03:44:36;;;;;;;;;;;;;;;12.61;100.00;98657.09;5084205;28;19972;-70
2023/05/03 03:47:03;;;;;;;;;;;;;;;12.73;100.00;98661.19;5080008;28;19963;-70
2023/05/03 03:49:29;;;;;;;;;;;;;;;12.77;100.00;98662.31;5080716;28;19984;-70
2023/05/03 03:51:57;;;;;;;;;;;;;;;12.92;100.00;98659.72;5082854;28;19929;-70
2023/05/03 03:54:23;;;;;;;;;;;;;;;13.16;100.00;98660.13;5084240;28;19959;-70
2023/05/03 03:56:51;;;;;;;;;;;;;;;13.09;100.00;98667.59;5083175;28;19924;-71
2023/05/03 03:59:17;;;;;;;;;;;;;;;12.94;100.00;98665.59;5080591;28;19956;-71
2023/05/03 04:01:44;;;;;;;;;;;;;;;12.82;100.00;98662.31;5079628;28;19921;-70
2023/05/03 04:04:10;;;;;;;;;;;;;;;13.09;100.00;98662.22;5083836;28;19924;-70
2023/05/03 04:06:36;;;;;;;;;;;;;;;13.26;100.00;98675.47;5076268;28;19967;-70
2023/05/03 04:09:04;;;;;;;;;;;;;;;13.39;100.00;98675.00;5078995;28;19924;-70
2023/05/03 04:11:30;;;;;;;;;;;;;;;13.52;100.00;98679.88;5080342;28;19980;-70
2023/05/03 04:13:57;;;;;;;;;;;;;;;13.59;100.00;98672.38;5082478;28;19960;-70
2023/05/03 04:16:23;;;;;;;;;;;;;;;13.64;100.00;98671.59;5083867;28;20481;-71
2023/05/03 04:18:50;;;;;;;;;;;;;;;13.68;100.00;98681.53;5081251;28;19979;-71
2023/05/03 04:21:16;;;;;;;;;;;;;;;13.69;100.00;98685.81;5078730;28;19936;-71
2023/05/03 04:23:42;;;;;;;;;;;;;;;13.73;100.00;98680.75;5079045;28;19925;-71
2023/05/03 04:26:10;;;;;;;;;;;;;;;13.72;100.00;98677.25;5083377;28;19931;-71
2023/05/03 04:28:37;;;;;;;;;;;;;;;13.67;100.00;98681.78;5083455;28;20010;-71
2023/05/03 04:31:04;;;;;;;;;;;;;;;13.66;100.00;98689.03;5080215;28;19920;-71
2023/05/03 04:33:30;;;;;;;;;;;;;;;13.59;100.00;98690.34;5079189;28;19960;-71
2023/05/03 04:35:56;;;;;;;;;;;;;;;13.36;100.00;98692.44;5079991;28;19925;-71
2023/05/03 04:38:23;;;;;;;;;;;;;;;13.24;100.00;98691.03;5077421;28;19974;-72
2023/05/03 04:40:49;;;;;;;;;;;;;;;13.24;100.00;98691.03;5081986;28;19970;-71
2023/05/03 04:43:17;;;;;;;;;;;;;;;13.25;100.00;98692.63;5079943;28;20005;-71
2023/05/03 04:45:43;;;;;;;;;;;;;;;12.47;100.00;98698.78;5080192;28;19929;-71
2023/05/03 04:48:10;;;;;;;;;;;;;;;12.72;100.00;98694.41;5083209;28;19925;-71
2023/05/03 04:50:36;;;;;;;;;;;;;;;12.84;100.00;98707.66;5083324;28;19932;-71
2023/05/03 04:53:02;;;;;;;;;;;;;;;12.96;100.00;98693.00;5080216;28;19925;-71
2023/05/03 04:55:29;;;;;;;;;;;;;;;13.23;100.00;98700.13;5079671;28;19921;-71
2023/05/03 04:57:56;;;;;;;;;;;;;;;13.29;100.00;98689.16;5081442;28;19928;-72
2023/05/03 05:00:23;;;;;;;;;;;;;;;13.43;100.00;98697.56;5082798;28;19932;-72
2023/05/03 05:02:50;;;;;;;;;;;;;;;12.97;100.00;98702.63;5081667;28;19964;-71
2023/05/03 05:05:17;;;;;;;;;;;;;;;12.89;100.00;98703.13;5079145;28;19940;-71
2023/05/03 05:07:43;;;;;;;;;;;;;;;12.56;100.00;98703.44;5071620;28;19960;-70
2023/05/03 05:10:10;;;;;;;;;;;;;;;12.02;100.00;98712.56;5083082;28;19991;-70
2023/05/03 05:12:36;;;;;;;;;;;;;;;12.15;100.00;98712.16;5082676;28;20043;-69
2023/05/03 05:15:03;;;;;;;;;;;;;;;12.12;100.00;98715.34;5079603;28;19924;-69
2023/05/03 05:17:30;;;;;;;;;;;;;;;12.87;100.00;98709.81;5078906;28;19925;-70
2023/05/03 05:19:57;;;;;;;;;;;;;;;12.50;100.00;98720.53;5080751;28;19980;-70
2023/05/03 05:22:23;;;;;;;;;;;;;;;12.89;100.00;98716.53;5082416;28;19947;-70
2023/05/03 05:24:49;;;;;;;;;;;;;;;13.12;100.00;98706.50;5081138;28;19947;-70
2023/05/03 05:27:16;;;;;;;;;;;;;;;12.98;100.00;98716.84;5079485;28;19963;-70
2023/05/03 05:29:42;;;;;;;;;;;;;;;12.68;100.00;98722.81;5079531;28;19954;-70
2023/05/03 05:32:09;;;;;;;;;;;;;;;12.90;100.00;98728.06;5082142;28;19947;-69
2023/05/03 05:34:37;;;;;;;;;;;;;;;12.78;100.00;98730.13;5081103;28;20364;-70
2023/05/03 05:37:04;;;;;;;;;;;;;;;13.02;100.00;98725.19;5071348;28;19960;-70
2023/05/03 05:39:30;;;;;;;;;;;;;;;12.96;100.00;98729.72;5079596;28;19924;-70
2023/05/03 05:41:57;;;;;;;;;;;;;;;12.87;100.00;98737.41;5081241;28;20356;-70
2023/05/03 05:44:23;;;;;;;;;;;;;;;12.97;100.00;98723.25;5082464;28;19924;-70
2023/05/03 05:46:49;;;;;;;;;;;;;;;13.06;100.00;98726.28;5081072;28;19925;-70
2023/05/03 05:49:16;;;;;;;;;;;;;;;13.42;100.00;98733.50;5078872;28;20116;-69
2023/05/03 05:51:43;;;;;;;;;;;;;;;13.26;100.00;98724.56;5079115;28;19924;-70
2023/05/03 05:54:10;;;;;;;;;;;;;;;13.06;100.00;98720.94;5082497;28;19924;-70
2023/05/03 05:56:36;;;;;;;;;;;;;;;13.17;100.00;98731.47;5082402;28;19966;-70
2023/05/03 05:59:04;;;;;;;;;;;;;;;13.55;100.00;98738.38;5079028;28;20060;-70
2023/05/03 06:01:32;;;;;;;;;;;;;;;13.62;100.00;98741.63;5077167;28;19924;-70
2023/05/03 06:03:58;;;;;;;;;;;;;;;13.74;100.00;98739.53;5080353;28;19921;-70
2023/05/03 06:06:25;;;;;;;;;;;;;;;14.18;100.00;98731.03;5074211;28;19991;-70
2023/05/03 06:08:52;;;;;;;;;;;;;;;14.19;100.00;98741.53;5077951;28;19958;-70
2023/05/03 06:11:20;;;;;;;;;;;;;;;14.42;100.00;98735.69;5078007;28;19960;-70
2023/05/03 06:13:46;;;;;;;;;;;;;;;14.24;100.00;98746.09;5078700;28;19924;-70
2023/05/03 06:16:13;;;;;;;;;;;;;;;14.00;100.00;98751.97;5081474;28;19935;-70
2023/05/03 06:18:39;;;;;;;;;;;;;;;14.20;100.00;98745.03;5081376;28;19931;-70
2023/05/03 06:21:05;;;;;;;;;;;;;;;14.01;100.00;98758.16;5077838;28;20527;-70
2023/05/03 06:23:32;;;;;;;;;;;;;;;13.97;100.00;98747.13;5077818;28;19936;-70
2023/05/03 06:26:00;;;;;;;;;;;;;;;13.83;100.00;98750.59;5079989;28;20505;-70
2023/05/03 06:28:26;;;;;;;;;;;;;;;13.93;100.00;98755.97;5080066;28;19959;-70
2023/05/03 06:30:53;;;;;;;;;;;;;;;13.85;100.00;98754.63;5079735;28;19929;-70
2023/05/03 06:33:19;;;;;;;;;;;;;;;14.16;100.00;98755.50;5077630;28;19971;-70
2023/05/03 06:35:46;;;;;;;;;;;;;;;14.20;100.00;98755.78;5076335;28;19925;-70
2023/05/03 06:38:13;;;;;;;;;;;;;;;14.34;100.00;98746.16;5073953;28;19924;-70
2023/05/03 06:40:40;;;;;;;;;;;;;;;14.41;100.00;98749.41;5079769;28;19982;-69
2023/05/03 06:43:08;;;;;;;;;;;;;;;14.13;100.00;98750.66;5077309;28;19925;-70
2023/05/03 06:45:34;;;;;;;;;;;;;;;13.90;100.00;98754.63;5076277;28;19947;-70
2023/05/03 06:48:00;;;;;;;;;;;;;;;13.75;100.00;98754.56;5078849;28;20003;-70
2023/05/03 06:50:27;;;;;;;;;;;;;;;14.21;100.00;98760.88;5081219;28;20413;-70
2023/05/03 06:52:53;;;;;;;;;;;;;;;14.40;100.00;98755.84;5079397;28;19924;-70
2023/05/03 06:55:20;;;;;;;;;;;;;;;14.50;100.00;98751.28;5077646;28;19935;-70
2023/05/03 06:57:47;;;;;;;;;;;;;;;14.30;100.00;98753.09;5077497;28;19921;-70
2023/05/03 07:00:15;;;;;;;;;;;;;;;14.02;100.00;98747.13;5079735;28;19958;-70
2023/05/03 07:02:42;;;;;;;;;;;;;;;13.75;100.00;98751.88;5080570;28;19963;-70
2023/05/03 07:05:08;;;;;;;;;;;;;;;14.14;100.00;98757.66;5069216;28;19939;-70
2023/05/03 07:07:35;;;;;;;;;;;;;;;13.83;100.00;98753.28;5069017;28;20678;-70
2023/05/03 07:10:02;;;;;;;;;;;;;;;13.62;100.00;98749.69;5080026;28;19948;-70
2023/05/03 07:12:28;;;;;;;;;;;;;;;13.61;100.00;98748.06;5079381;28;19932;-70
2023/05/03 07:14:55;;;;;;;;;;;;;;;13.44;100.00;98747.44;5078507;28;20673;-70
2023/05/03 07:17:23;;;;;;;;;;;;;;;13.62;100.00;98747.00;5076721;28;19970;-70
2023/05/03 07:19:49;;;;;;;;;;;;;;;13.47;100.00;98747.75;5078139;28;20504;-70
2023/05/03 07:22:16;;;;;;;;;;;;;;;13.31;100.00;98742.53;5079084;28;19999;-70
2023/05/03 07:24:42;;;;;;;;;;;;;;;13.39;100.00;98744.75;5080152;28;19924;-70
2023/05/03 07:27:09;;;;;;;;;;;;;;;13.29;100.00;98744.69;5075494;28;20015;-70
2023/05/03 07:29:35;;;;;;;;;;;;;;;13.18;100.00;98743.84;5077019;28;19992;-70
2023/05/03 07:32:02;;;;;;;;;;;;;;;13.06;100.00;98743.16;5079652;28;19936;-70
2023/05/03 07:34:31;;;;;;;;;;;;;;;13.15;100.00;98738.97;5080733;28;19956;-70
2023/05/03 07:36:57;;;;;;;;;;;;;;;13.18;100.00;98738.47;5070683;28;19924;-70
2023/05/03 07:39:24;;;;;;;;;;;;;;;13.77;100.00;98725.56;5077210;28;19925;-70
2023/05/03 07:41:50;;;;;;;;;;;;;;;13.77;100.00;98736.31;5078145;28;19921;-70
2023/05/03 07:44:16;;;;;;;;;;;;;;;13.89;100.00;98725.38;5080621;28;19932;-70
2023/05/03 07:46:43;;;;;;;;;;;;;;;13.89;100.00;98728.84;5080192;28;19920;-70
2023/05/03 07:49:09;;;;;;;;;;;;;;;14.00;100.00;98730.47;5077059;28;19925;-71
2023/05/03 07:51:38;;;;;;;;;;;;;;;14.27;100.00;98727.56;5077264;28;19925;-71
2023/05/03 07:54:05;;;;;;;;;;;;;;;14.28;100.00;98726.50;5080136;28;19924;-71
2023/05/03 07:56:31;;;;;;;;;;;;;;;14.01;100.00;98721.38;5080363;28;19924;-71
2023/05/03 07:58:58;;;;;;;;;;;;;;;14.16;100.00;98723.28;5078134;28;20012;-71
2023/05/03 08:01:24;;;;;;;;;;;;;;;14.32;100.00;98727.59;5075625;28;19925;-70
2023/05/03 08:03:50;;;;;;;;;;;;;;;14.39;100.00;98716.63;5078102;28;19932;-71
2023/05/03 08:06:17;;;;;;;;;;;;;;;14.35;100.00;98715.53;5075303;28;19946;-71
2023/05/03 08:08:45;;;;;;;;;;;;;;;14.46;100.00;98715.25;5078354;28;19924;-70
2023/05/03 08:11:11;;;;;;;;;;;;;;;14.52;100.00;98710.69;5080563;28;19951;-71
2023/05/03 08:13:38;;;;;;;;;;;;;;;14.53;100.00;98717.69;5079137;28;19921;-71
2023/05/03 08:16:05;;;;;;;;;;;;;;;14.57;100.00;98724.16;5083354;28;19972;-71
2023/05/03 08:18:31;;;;;;;;;;;;;;;14.69;100.00;98711.25;5082652;28;19983;-71
2023/05/03 08:20:58;;;;;;;;;;;;;;;14.70;100.00;98712.06;5081311;28;19978;-71
2023/05/03 08:23:25;;;;;;;;;;;;;;;14.71;100.00;98717.16;5080235;28;19951;-71
2023/05/03 08:25:53;;;;;;;;;;;;;;;14.72;100.00;98720.66;5080198;28;19925;-71
2023/05/03 08:28:19;;;;;;;;;;;;;;;14.83;100.00;98716.88;5082165;28;19946;-71
2023/05/03 08:30:46;;;;;;;;;;;;;;;14.89;100.00;98715.78;5082896;28;19956;-71
2023/05/03 08:33:12;;;;;;;;;;;;;;;14.83;100.00;98719.56;5079824;28;19925;-71
2023/05/03 08:35:39;;;;;;;;;;;;;;;14.91;100.00;98729.78;5079723;28;19939;-71
2023/05/03 08:38:06;;;;;;;;;;;;;;;15.11;100.00;98716.28;5074637;28;19924;-71
2023/05/03 08:40:35;;;;;;;;;;;;;;;15.27;100.00;98708.97;5083301;28;19992;-69
2023/05/03 08:43:07;;;;;;;;;;;;;;;15.07;100.00;98716.03;5080204;28;19939;-71
2023/05/03 08:45:33;;;;;;;;;;;;;;;15.13;100.00;98714.16;5079707;28;19925;-71
2023/05/03 08:48:01;;;;;;;;;;;;;;;15.11;100.00;98717.09;5082084;28;19951;-71
2023/05/03 08:50:28;;;;;;;;;;;;;;;15.00;100.00;98715.50;5082911;28;19924;-71
2023/05/03 08:52:54;;;;;;;;;;;;;;;14.84;100.00;98718.47;5081250;28;19924;-71
2023/05/03 08:55:21;;;;;;;;;;;;;;;14.88;100.00;98715.00;5079521;28;19925;-71
2023/05/03 08:57:47;;;;;;;;;;;;;;;15.07;100.00;98704.47;5080313;28;19947;-71
2023/05/03 09:00:18;;;;;;;;;;;;;;;15.04;100.00;98721.94;5083103;28;20373;-71
2023/05/03 09:02:44;;;;;;;;;;;;;;;15.14;100.00;98716.56;5082605;28;19924;-71
2023/05/03 09:05:30;;;;;;;;;;;;;;;15.22;100.00;98717.09;5078221;28;19972;-71
2023/05/03 09:08:01;;;;;;;;;;;;;;;15.28;100.00;98713.28;5071787;28;19947;-71
2023/05/03 09:10:27;;;;;;;;;;;;;;;15.26;100.00;98726.19;5081493;28;19925;-71
2023/05/03 09:12:58;;;;;;;;;;;;;;;15.32;100.00;98720.53;5080934;28;19951;-69
2023/05/03 09:15:28;;;;;;;;;;;;;;;15.58;100.00;98716.72;5079207;28;19947;-71
2023/05/03 09:18:07;;;;;;;;;;;;;;;15.70;100.00;98720.97;5080660;28;19925;-71
2023/05/03 09:20:34;;;;;;;;;;;;;;;15.78;100.00;98713.13;5082212;28;19928;-70
2023/05/03 09:23:01;;;;;;;;;;;;;;;15.78;100.00;98723.91;5079554;28;19925;-70
2023/05/03 09:25:40;;;;;;;;;;;;;;;15.75;100.00;98723.66;5078903;28;19924;-70
2023/05/03 09:28:06;;;;;;;;;;;;;;;15.51;100.00;98723.47;5082085;28;19947;-70
2023/05/03 09:30:34;;;;;;;;;;;;;;;15.59;100.00;98723.72;5082301;28;19963;-70
2023/05/03 09:33:01;;;;;;;;;;;;;;;15.51;100.00;98723.47;5079669;28;19930;-70
2023/05/03 09:35:28;;;;;;;;;;;;;;;15.50;100.00;98720.00;5077324;28;19959;-70
2023/05/03 09:37:54;;;;;;;;;;;;;;;15.62;100.00;98719.66;5070282;28;19928;-70
2023/05/03 09:40:20;;;;;;;;;;;;;;;15.74;100.00;98720.16;5078542;28;19988;-70
2023/05/03 09:43:01;;;;;;;;;;;;;;;15.77;100.00;98716.09;5078949;28;19960;-70
2023/05/03 09:45:28;;;;;;;;;;;;;;;15.73;100.00;98715.84;5081817;28;19927;-70
2023/05/03 09:47:56;;;;;;;;;;;;;;;15.94;100.00;98711.16;5079203;28;19924;-70
2023/05/03 09:50:25;;;;;;;;;;;;;;;15.96;100.00;98711.69;5077350;28;20035;-70
2023/05/03 09:52:52;;;;;;;;;;;;;;;16.14;100.00;98714.53;5079898;28;19921;-70
2023/05/03 09:55:51;;;;;;;;;;;;;;;15.80;100.00;98713.66;5082010;28;19947;-70
2023/05/03 09:58:19;;;;;;;;;;;;;;;15.89;100.00;98709.31;5078811;28;19957;-70
2023/05/03 10:00:49;;;;;;;;;;;;;;;15.79;100.00;98720.13;5078832;28;19920;-70
2023/05/03 10:03:20;;;;;;;;;;;;;;;15.96;100.00;98717.88;5081599;28;19927;-70
2023/05/03 10:05:47;;;;;;;;;;;;;;;15.98;100.00;98713.00;5081219;28;19992;-70
2023/05/03 10:08:19;;;;;;;;;;;;;;;16.28;100.00;98706.63;5074056;28;20441;-70
2023/05/03 10:10:46;;;;;;;;;;;;;;;16.20;100.00;98713.44;5079817;28;19986;-70
2023/05/03 10:13:13;;;;;;;;;;;;;;;16.36;100.00;98702.53;5078057;28;19964;-71
2023/05/03 10:15:41;;;;;;;;;;;;;;;16.44;100.00;98710.00;5076454;28;19948;-69
2023/05/03 10:18:10;;;;;;;;;;;;;;;16.59;100.00;98701.81;5077638;28;19925;-69
2023/05/03 10:20:40;;;;;;;;;;;;;;;16.75;100.00;98695.22;5076532;28;19951;-71
2023/05/03 10:23:10;;;;;;;;;;;;;;;16.94;100.00;98688.03;5080735;28;19964;-70
2023/05/03 10:25:37;;;;;;;;;;;;;;;16.95;100.00;98691.53;5080007;28;19971;-72
2023/05/03 10:28:04;;;;;;;;;;;;;;;16.97;100.00;98690.16;5077966;28;19968;-71
2023/05/03 10:30:33;;;;;;;;;;;;;;;16.79;100.00;98681.97;5075577;28;19925;-71
2023/05/03 10:33:00;;;;;;;;;;;;;;;17.06;100.00;98690.34;5079918;28;19992;-70
2023/05/03 10:35:27;;;;;;;;;;;;;;;17.10;100.00;98680.59;5075069;28;19931;-70
2023/05/03 10:37:56;;;;;;;;;;;;;;;17.00;100.00;98672.59;5070694;28;19980;-70
2023/05/03 10:40:23;;;;;;;;;;;;;;;17.12;100.00;98678.41;5079745;28;19960;-70
2023/05/03 10:42:55;;;;;;;;;;;;;;;17.07;100.00;98684.66;5079864;28;19931;-70
2023/05/03 10:45:22;;;;;;;;;;;;;;;17.00;100.00;98683.38;5077321;28;19938;-71
2023/05/03 10:48:07;;;;;;;;;;;;;;;16.78;100.00;98680.34;5078151;28;19925;-71
2023/05/03 10:50:36;;;;;;;;;;;;;;;16.65;100.00;98687.22;5080594;28;20307;-70
2023/05/03 10:53:04;;;;;;;;;;;;;;;16.76;100.00;98680.66;5077004;28;19933;-70
2023/05/03 10:55:30;;;;;;;;;;;;;;;16.79;100.00;98685.47;5077423;28;19976;-71
2023/05/03 10:57:58;;;;;;;;;;;;;;;16.80;100.00;98678.19;5079419;28;19920;-71
2023/05/03 11:00:28;;;;;;;;;;;;;;;16.79;100.00;98680.09;5081002;28;19935;-71
2023/05/03 11:03:04;;;;;;;;;;;;;;;16.78;100.00;98673.06;5078732;28;19924;-71
2023/05/03 11:05:32;;;;;;;;;;;;;;;16.76;100.00;98680.66;5077199;28;19925;-71
2023/05/03 11:08:09;;;;;;;;;;;;;;;16.66;100.00;98678.84;5069943;28;19925;-70
2023/05/03 11:10:35;;;;;;;;;;;;;;;16.54;100.00;98672.19;5080579;28;19924;-70
2023/05/03 11:13:01;;;;;;;;;;;;;;;16.63;100.00;98675.91;5077687;28;20623;-71
2023/05/03 11:15:28;;;;;;;;;;;;;;;16.58;100.00;98679.47;5077302;28;19925;-70
2023/05/03 11:17:54;;;;;;;;;;;;;;;16.51;100.00;98670.06;5077463;28;19988;-70
2023/05/03 11:20:21;;;;;;;;;;;;;;;16.58;100.00;98673.28;5080420;28;20049;-70
2023/05/03 11:22:47;;;;;;;;;;;;;;;16.52;100.00;98667.09;5079544;28;19964;-70
2023/05/03 11:25:15;;;;;;;;;;;;;;;16.58;100.00;98665.19;5076898;28;19921;-71
2023/05/03 11:27:42;;;;;;;;;;;;;;;16.84;100.00;98661.16;5076925;28;19992;-71
2023/05/03 11:30:09;;;;;;;;;;;;;;;17.07;95.70;98659.56;5076851;28;19925;-71
2023/05/03 11:32:35;;;;;;;;;;;;;;;16.91;100.00;98645.44;5076941;28;19921;-71
2023/05/03 11:35:04;;;;;;;;;;;;;;;17.05;100.00;98657.13;5075916;28;19925;-70
2023/05/03 11:37:31;;;;;;;;;;;;;;;16.92;100.00;98649.75;5068665;28;19928;-70
2023/05/03 11:39:57;;;;;;;;;;;;;;;17.02;100.00;98657.72;5078489;28;19925;-70
2023/05/03 11:42:25;;;;;;;;;;;;;;;17.03;95.18;98651.22;5081208;28;19924;-70
2023/05/03 11:44:52;;;;;;;;;;;;;;;16.88;99.14;98639.78;5082609;28;19980;-71
2023/05/03 11:47:19;;;;;;;;;;;;;;;16.95;94.74;98641.09;5079307;28;19920;-71
2023/05/03 11:49:51;;;;;;;;;;;;;;;16.94;95.22;98633.25;5079624;28;19925;-71
2023/05/03 11:52:20;;;;;;;;;;;;;;;16.83;92.06;98640.66;5083775;28;19964;-70
2023/05/03 11:54:46;;;;;;;;;;;;;;;16.99;92.79;98646.72;5083304;28;19928;-70
2023/05/03 11:57:13;;;;;;;;;;;;;;;17.03;91.76;98647.72;5080564;28;19924;-71
2023/05/03 11:59:41;;;;;;;;;;;;;;;17.09;93.61;98635.78;5080458;28;19928;-71
2023/05/03 12:02:09;;;;;;;;;;;;;;;17.09;98.49;98639.28;5080256;28;19963;-71
2023/05/03 12:04:39;;;;;;;;;;;;;;;17.25;91.62;98638.03;5080408;28;19925;-71
2023/05/03 12:07:06;;;;;;;;;;;;;;;17.14;93.71;98641.16;5072189;28;19968;-71
2023/05/03 12:09:32;;;;;;;;;;;;;;;17.11;92.94;98642.50;5080246;28;19932;-71
2023/05/03 12:11:59;;;;;;;;;;;;;;;17.06;93.86;98639.06;5082509;28;19948;-71
2023/05/03 12:14:26;;;;;;;;;;;;;;;17.32;88.41;98639.56;5083643;28;19930;-71
2023/05/03 12:16:54;;;;;;;;;;;;;;;17.49;88.10;98635.28;5082176;28;19924;-71
2023/05/03 12:19:25;;;;;;;;;;;;;;;17.50;89.07;98636.91;5079984;28;19928;-71
2023/05/03 12:21:51;;;;;;;;;;;;;;;17.58;85.60;98640.88;5081267;28;19940;-70
2023/05/03 12:24:18;;;;;;;;;;;;;;;17.64;78.66;98632.41;5082043;28;20647;-70
2023/05/03 12:26:44;;;;;;;;;;;;;;;17.61;83.72;98637.59;5081823;28;20548;-71
2023/05/03 12:29:11;;;;;;;;;;;;;;;17.32;91.11;98626.06;5080057;28;19974;-71
2023/05/03 12:31:38;;;;;;;;;;;;;;;17.64;88.84;98629.72;5079968;28;19949;-71
2023/05/03 12:34:06;;;;;;;;;;;;;;;17.56;85.41;98624.16;5082537;28;19996;-71
2023/05/03 12:36:33;;;;;;;;;;;;;;;17.95;86.64;98630.09;5076583;28;19924;-70
2023/05/03 12:38:59;;;;;;;;;;;;;;;17.97;83.75;98619.81;5079843;28;19924;-71
2023/05/03 12:41:28;;;;;;;;;;;;;;;17.93;85.16;98615.25;5079884;28;19931;-70
2023/05/03 12:43:55;;;;;;;;;;;;;;;18.12;81.25;98618.75;5081285;28;19949;-70
2023/05/03 12:46:22;;;;;;;;;;;;;;;18.19;77.40;98614.59;5081681;28;19920;-70
2023/05/03 12:48:48;;;;;;;;;;;;;;;18.12;77.72;98606.06;5080949;28;19956;-70
2023/05/03 12:51:17;;;;;;;;;;;;;;;17.96;75.71;98609.28;5079608;28;20007;-70